Time;durP1;ratioP1;P1;durP2;ratioP2;P2;SDS_P1;SDS_P2;PMS_P1;PMS_P2;Temp;Humidity;BMP_temperature;BMP_pressure;BME280_temperature;BME280_humidity;BME280_pressure;Samples;Min_cycle;Max_cycle;Signal;HPM_P1;HPM_P2
2022/08/14 00:01:24;;;;;;;20.33;18.27;;;;;;;;;;5052419;28;20104;-79
2022/08/14 00:03:50;;;;;;;22.75;18.95;;;;;;;;;;5055283;28;20029;-80
2022/08/14 00:06:16;;;;;;;22.98;20.63;;;;;;;;;;5075778;28;20046;-79
2022/08/14 00:08:42;;;;;;;21.50;19.27;;;;;;;;;;5075841;28;20016;-79
2022/08/14 00:11:08;;;;;;;21.90;19.90;;;;;;;;;;5075879;28;20053;-80
2022/08/14 00:13:36;;;;;;;21.80;19.70;;;;;;;;;;5075743;28;20016;-79
2022/08/14 00:16:02;;;;;;;21.08;18.88;;;;;;;;;;5075800;28;20032;-80
2022/08/14 00:18:28;;;;;;;22.38;20.00;;;;;;;;;;5075755;28;20057;-78
2022/08/14 00:20:56;;;;;;;22.27;19.05;;;;;;;;;;5075533;28;20089;-79
2022/08/14 00:23:22;;;;;;;22.13;19.83;;;;;;;;;;5093723;28;20034;-80
2022/08/14 00:25:51;;;;;;;21.98;19.65;;;;;;;;;;5075490;28;20028;-79
2022/08/14 00:28:17;;;;;;;22.90;20.80;;;;;;;;;;5075370;28;20350;-79
2022/08/14 00:30:44;;;;;;;22.23;19.95;;;;;;;;;;5093957;28;20424;-79
2022/08/14 00:33:10;;;;;;;24.40;22.10;;;;;;;;;;5093599;28;20031;-80
2022/08/14 00:35:37;;;;;;;24.42;22.05;;;;;;;;;;5075499;28;20024;-80
2022/08/14 00:38:03;;;;;;;23.05;20.75;;;;;;;;;;5093624;28;20604;-79
2022/08/14 00:40:29;;;;;;;23.10;20.70;;;;;;;;;;5075227;28;20024;-79
2022/08/14 00:42:55;;;;;;;21.05;19.13;;;;;;;;;;5075335;28;20036;-78
2022/08/14 00:45:22;;;;;;;21.02;18.83;;;;;;;;;;5075363;28;20020;-79
2022/08/14 00:47:49;;;;;;;21.35;19.35;;;;;;;;;;5075420;28;20138;-80
2022/08/14 00:50:17;;;;;;;23.75;21.63;;;;;;;;;;5075765;28;20016;-79
2022/08/14 00:52:44;;;;;;;23.17;20.73;;;;;;;;;;5097916;28;20052;-79
2022/08/14 00:55:10;;;;;;;22.27;20.23;;;;;;;;;;5079356;28;20027;-79
2022/08/14 00:57:37;;;;;;;25.42;22.95;;;;;;;;;;5079628;28;20422;-78
2022/08/14 01:00:13;;;;;;;26.60;24.05;;;;;;;;;;5097881;28;20043;-79
2022/08/14 01:02:42;;;;;;;25.00;22.60;;;;;;;;;;5079122;28;20027;-80
2022/08/14 01:05:22;;;;;;;24.63;22.30;;;;;;;;;;5063922;28;20095;-79
2022/08/14 01:07:50;;;;;;;25.95;23.42;;;;;;;;;;5056169;28;20021;-79
2022/08/14 01:10:17;;;;;;;27.45;24.75;;;;;;;;;;5055869;28;20028;-79
2022/08/14 01:12:43;;;;;;;24.15;21.90;;;;;;;;;;5055831;28;20485;-80
2022/08/14 01:15:09;;;;;;;27.23;24.42;;;;;;;;;;5055860;28;20078;-79
2022/08/14 01:23:07;;;;;;;22.13;19.83;;;;;;;;;;5056869;28;20494;-80
2022/08/14 01:25:37;;;;;;;20.88;18.75;;;;;;;;;;5055706;28;20021;-79
2022/08/14 01:28:03;;;;;;;20.40;18.33;;;;;;;;;;5055752;28;20428;-79
2022/08/14 01:30:31;;;;;;;20.17;18.10;;;;;;;;;;5056625;28;20025;-80
2022/08/14 01:32:57;;;;;;;21.38;19.17;;;;;;;;;;5056615;28;20025;-80
2022/08/14 01:35:27;;;;;;;22.45;20.15;;;;;;;;;;5055560;28;20025;-79
2022/08/14 01:37:53;;;;;;;18.98;17.20;;;;;;;;;;5055038;28;20032;-79
2022/08/14 01:40:22;;;;;;;18.48;16.55;;;;;;;;;;5055853;28;20043;-81
2022/08/14 01:42:48;;;;;;;18.35;16.48;;;;;;;;;;5055428;28;20470;-80
2022/08/14 01:45:14;;;;;;;21.83;16.17;;;;;;;;;;5054926;28;20036;-79
2022/08/14 01:47:40;;;;;;;13.20;11.80;;;;;;;;;;5056843;28;20021;-79
2022/08/14 01:50:08;;;;;;;12.90;9.65;;;;;;;;;;5056712;28;20057;-80
2022/08/14 01:52:37;;;;;;;11.93;9.65;;;;;;;;;;5055337;28;20462;-81
2022/08/14 01:55:13;;;;;;;9.77;8.25;;;;;;;;;;5055464;28;20029;-83
2022/08/14 01:57:43;;;;;;;9.02;7.53;;;512.70;2380.80;;;;;;5055630;28;20040;-83
2022/08/14 02:00:15;;;;;;;8.77;7.57;;;512.40;2380.80;;;;;;5055229;28;20055;-83
2022/08/14 02:02:41;;;;;;;12.40;6.90;;;;;;;;;;5055080;28;20025;-82
2022/08/14 02:05:11;;;;;;;9.52;5.63;;;;;;;;;;5054860;28;20052;-82
2022/08/14 02:07:37;;;;;;;12.95;6.32;;;;;;;;;;5055591;28;20363;-82
2022/08/14 02:10:05;;;;;;;9.05;6.43;;;;;;;;;;5055293;28;20497;-83
2022/08/14 02:12:31;;;;;;;7.82;4.72;;;;;;;;;;5055132;28;20025;-84
2022/08/14 02:14:59;;;;;;;7.50;4.60;;;;;;;;;;5055271;28;20029;-83
2022/08/14 02:17:26;;;;;;;5.97;4.85;;;;;;;;;;5055146;28;20108;-83
2022/08/14 02:19:52;;;;;;;5.45;4.63;;;;;;;;;;5055178;28;20043;-84
2022/08/14 02:22:19;;;;;;;8.05;5.55;;;;;;;;;;5054957;28;20030;-83
2022/08/14 02:24:48;;;;;;;7.72;6.80;;;;;;;;;;5055129;28;20021;-84
2022/08/14 02:27:17;;;;;;;9.02;8.13;;;;;;;;;;5054808;28;20532;-83
2022/08/14 02:29:43;;;;;;;10.57;9.45;;;;;;;;;;5055070;28;20059;-84
2022/08/14 02:32:10;;;;;;;11.07;9.90;;;;;;;;;;5054836;28;20029;-83
2022/08/14 02:34:38;;;;;;;12.10;10.45;;;;;;;;;;5054765;28;20484;-83
2022/08/14 02:37:08;;;;;;;11.25;10.05;;;;;;;;;;5054899;28;20159;-84
2022/08/14 02:39:36;;;;;;;10.85;9.75;;;;;;;;;;5054761;28;20055;-83
2022/08/14 02:42:25;;;;;;;11.50;10.35;;;;;;;;;;5054681;28;20029;-84
2022/08/14 02:44:53;;;;;;;12.20;10.57;;;512.20;2380.80;;;;;;5054885;28;20032;-83
2022/08/14 02:47:22;;;;;;;12.75;11.00;;;512.00;2380.80;;;;;;5054571;28;20024;-84
2022/08/14 02:50:08;;;;;;;15.52;10.75;;;512.10;2380.80;;;;;;5054593;28;20036;-83
2022/08/14 02:52:37;;;;;;;12.65;11.35;;;;;;;;;;5054156;28;20033;-84
2022/08/14 02:55:05;;;;;;;11.95;10.45;;;;;;;;;;5054698;28;20029;-83
2022/08/14 02:57:31;;;;;;;12.68;11.43;;;;;;;;;;5054197;28;20031;-83
2022/08/14 03:00:00;;;;;;;11.43;10.27;;;;;;;;;;5054331;28;20024;-83
2022/08/14 03:02:29;;;;;;;13.52;12.10;;;;;;;;;;5054346;28;20016;-84
2022/08/14 03:04:55;;;;;;;12.27;11.07;;;;;;;;;;5053959;28;20045;-83
2022/08/14 03:07:22;;;;;;;12.30;10.65;;;;;;;;;;5054153;28;20021;-84
2022/08/14 03:09:50;;;;;;;12.25;11.05;;;;;;;;;;5054140;28;20434;-83
2022/08/14 03:12:16;;;;;;;12.18;10.98;;;;;;;;;;5054395;28;20025;-83
2022/08/14 03:14:48;;;;;;;11.68;10.27;;;;;;;;;;5053103;28;20048;-83
2022/08/14 03:17:18;;;;;;;10.77;9.65;;;;;;;;;;5053853;28;20032;-83
2022/08/14 03:19:47;;;;;;;10.73;9.63;;;;;;;;;;5054248;28;20036;-83
2022/08/14 03:22:27;;;;;;;10.43;9.43;;;;;;;;;;5053876;28;20021;-84
2022/08/14 03:28:28;;;;;;;9.93;8.95;;;;;;;;;;5051596;28;20088;-84
2022/08/14 03:30:54;;;;;;;10.80;9.70;;;;;;;;;;5042002;28;20033;-83
2022/08/14 03:33:24;;;;;;;9.73;8.75;;;;;;;;;;5053884;28;20025;-84
2022/08/14 03:35:50;;;;;;;9.93;8.93;;;;;;;;;;5053748;28;20056;-83
2022/08/14 03:38:19;;;;;;;10.77;9.77;;;;;;;;;;5053640;28;20028;-83
2022/08/14 03:43:38;;;;;;;10.45;9.38;;;;;;;;;;5054865;28;20025;-83
2022/08/14 03:46:12;;;;;;;11.77;10.60;;;;;;;;;;5053675;28;20033;-83
2022/08/14 03:48:39;;;;;;;10.25;9.27;;;;;;;;;;5053571;28;20033;-83
2022/08/14 03:58:07;;;;;;;;;;;;;;;;;;;;;
2022/08/14 04:09:56;;;;;;;12.50;10.05;;;;;;;;;;5094700;28;20127;-83
2022/08/14 04:12:32;;;;;;;12.00;9.73;;;;;;;;;;5065498;28;20546;-83
2022/08/14 04:15:09;;;;;;;10.07;8.93;;;;;;;;;;5074059;28;20028;-83
2022/08/14 04:17:37;;;;;;;10.50;9.27;;;;;;;;;;5075966;28;20032;-83
2022/08/14 04:20:11;;;;;;;8.40;7.60;;;486.50;2380.80;;;;;;5076251;28;20027;-83
2022/08/14 04:22:41;;;;;;;9.82;7.75;;;;;;;;;;5076831;28;20027;-84
2022/08/14 04:25:07;;;;;;;7.72;7.00;;;487.10;2380.80;;;;;;5076187;28;20419;-83
2022/08/14 04:27:34;;;;;;;7.93;7.13;;;;;;;;;;5075002;28;20031;-84
2022/08/14 04:30:18;;;;;;;8.70;7.57;;;;;;;;;;5076609;28;20027;-84
2022/08/14 04:32:44;;;;;;;10.45;7.53;;;537.90;2406.40;;;;;;5076126;28;20392;-84
2022/08/14 04:45:15;;;;;;;;;;;;;;;;;;;;;
2022/08/14 04:50:36;;;;;;;;;;;;;;;;;;5030879;28;20412;-84
2022/08/14 04:53:05;;;;;;;11.90;10.60;;;;;;;;;;5105772;28;19904;-82
2022/08/14 04:55:43;;;;;;;12.93;11.65;;;;;;;;;;5077343;28;20035;-84
2022/08/14 04:58:12;;;;;;;13.30;11.30;;;;;;;;;;5075647;28;20028;-84
2022/08/14 05:01:02;;;;;;;12.40;9.57;;;;;;;;;;5076001;28;20023;-84
2022/08/14 05:03:51;;;;;;;11.27;10.13;;;;;;;;;;5075481;28;20035;-85
2022/08/14 05:06:24;;;;;;;11.40;10.25;;;;;;;;;;5076651;28;20468;-84
2022/08/14 05:08:56;;;;;;;12.15;10.25;;;;;;;;;;5096601;28;20087;-84
2022/08/14 05:11:26;;;;;;;;;;;;;;;;;;5097963;28;20036;-84
2022/08/14 05:13:52;;;;;;;11.18;9.57;;;;;;;;;;5132689;28;19914;-84
2022/08/14 05:16:25;;;;;;;12.00;10.77;;;;;;;;;;5098845;28;20028;-84
2022/08/14 05:18:54;;;;;;;11.88;10.68;;;;;;;;;;5099985;28;20016;-84
2022/08/14 05:24:33;;;;;;;10.57;9.47;;;;;;;;;;5093823;28;20028;-85
2022/08/14 05:27:19;;;;;;;11.80;10.57;;;;;;;;;;5075554;28;20048;-84
2022/08/14 05:29:48;;;;;;;10.07;9.05;;;;;;;;;;5075779;28;20161;-84
2022/08/14 05:35:24;;;;;;;9.23;8.32;;;;;;;;;;5093002;28;20728;-84
2022/08/14 05:37:56;;;;;;;9.00;7.78;;;;;;;;;;5077694;28;20680;-83
2022/08/14 05:40:43;;;;;;;16.90;9.52;;;;;;;;;;5079452;28;20035;-84
2022/08/14 05:46:54;;;;;;;8.18;6.50;;;;;;;;;;5097396;28;20085;-83
2022/08/14 05:58:37;;;;;;;5.43;4.70;;;;;;;;;;4995232;28;20377;-84
2022/08/14 06:04:17;;;;;;;6.32;5.50;;;;;;;;;;5054239;28;20067;-84
2022/08/14 06:06:43;;;;;;;9.98;6.45;;;;;;;;;;5037332;28;20044;-84
2022/08/14 06:09:09;;;;;;;7.93;6.13;;;;;;;;;;5037551;28;20040;-84
2022/08/14 06:11:35;;;;;;;10.65;8.48;;;;;;;;;;5037520;28;20108;-83
2022/08/14 06:14:01;;;;;;;10.13;7.80;;;;;;;;;;5059938;28;20039;-82
2022/08/14 06:16:27;;;;;;;10.00;7.53;;;;;;;;;;5078100;28;20035;-82
2022/08/14 06:18:54;;;;;;;9.50;7.88;;;;;;;;;;5096244;28;20027;-83
2022/08/14 06:21:23;;;;;;;8.50;6.75;;;;;;;;;;5096233;28;20020;-82
2022/08/14 06:23:49;;;;;;;9.02;6.28;;;;;;;;;;5096341;28;20043;-83
2022/08/14 06:26:15;;;;;;;7.05;6.35;;;;;;;;;;5078088;28;20028;-83
2022/08/14 06:28:41;;;;;;;8.25;7.05;;;;;;;;;;5078280;28;20107;-83
2022/08/14 06:31:10;;;;;;;9.75;7.78;;;;;;;;;;5078147;28;20047;-82
2022/08/14 06:33:36;;;;;;;11.10;7.35;;;;;;;;;;5078461;28;20020;-83
2022/08/14 06:36:02;;;;;;;8.00;6.72;;;;;;;;;;5078233;28;20032;-83
2022/08/14 06:38:28;;;;;;;6.78;5.97;;;;;;;;;;5078085;28;20405;-82
2022/08/14 06:40:54;;;;;;;7.47;5.82;;;;;;;;;;5078395;28;20020;-83
2022/08/14 06:43:20;;;;;;;12.82;6.60;;;;;;;;;;5078323;28;20024;-83
2022/08/14 06:45:47;;;;;;;10.07;6.57;;;;;;;;;;5078011;28;20051;-83
2022/08/14 06:48:13;;;;;;;8.07;6.32;;;;;;;;;;5077525;28;20020;-82
2022/08/14 06:50:40;;;;;;;7.47;6.22;;;;;;;;;;5077824;28;20055;-83
2022/08/14 06:53:06;;;;;;;7.80;6.75;;;;;;;;;;5077925;28;20377;-82
2022/08/14 06:55:32;;;;;;;8.02;6.47;;;;;;;;;;5077885;28;20028;-84
2022/08/14 06:57:59;;;;;;;9.27;7.70;;;;;;;;;;5077789;28;20550;-84
2022/08/14 07:00:26;;;;;;;8.65;6.88;;;;;;;;;;5077657;28;20060;-83
2022/08/14 07:08:13;;;;;;;10.07;5.88;;;;;;;;;;5095479;28;20024;-81
2022/08/14 07:10:40;;;;;;;6.90;4.93;;;;;;;;;;5077446;28;20538;-81
2022/08/14 07:13:06;;;;;;;8.05;5.15;;;;;;;;;;5077324;28;20112;-82
2022/08/14 07:15:32;;;;;;;6.88;5.25;;;;;;;;;;5095305;28;20101;-81
2022/08/14 07:17:59;;;;;;;7.60;4.88;;;;;;;;;;5095323;28;20046;-80
2022/08/14 07:20:26;;;;;;;9.48;6.28;;;;;;;;;;5077025;28;20024;-81
2022/08/14 07:22:57;;;;;;;6.78;4.90;;;;;;;;;;5077322;28;20054;-81
2022/08/14 07:25:24;;;;;;;5.13;4.63;;;;;;;;;;5095465;28;20020;-82
2022/08/14 07:27:50;;;;;;;5.78;5.13;;;;;;;;;;5076707;28;20020;-82
2022/08/14 07:30:16;;;;;;;5.38;4.43;;;;;;;;;;5077273;28;20024;-81
2022/08/14 07:32:42;;;;;;;6.38;5.05;;;;;;;;;;5076978;28;20024;-81
2022/08/14 07:35:08;;;;;;;4.95;4.35;;;;;;;;;;5076789;28;20516;-81
2022/08/14 07:37:35;;;;;;;6.90;5.57;;;;;;;;;;5077065;28;20024;-83
2022/08/14 07:40:02;;;;;;;6.55;4.78;;;;;;;;;;5077317;28;20051;-84
2022/08/14 07:42:28;;;;;;;6.20;4.50;;;;;;;;;;5077283;28;20457;-84
2022/08/14 07:44:54;;;;;;;5.25;4.53;;;;;;;;;;5077323;28;20461;-86
2022/08/14 07:47:29;;;;;;;5.82;4.38;;;;;;;;;;5077334;28;20031;-89
2022/08/14 07:50:01;;;;;;;5.78;4.00;;;;;;;;;;5076562;28;20077;-82
2022/08/14 07:52:28;;;;;;;5.32;4.47;;;;;;;;;;5076287;28;20016;-78
2022/08/14 07:54:55;;;;;;;6.80;4.80;;;;;;;;;;5075167;28;20058;-81
2022/08/14 07:57:21;;;;;;;5.40;4.50;;;;;;;;;;5093326;28;20016;-79
2022/08/14 07:59:47;;;;;;;5.28;3.80;;;;;;;;;;5075317;28;20039;-80
2022/08/14 08:02:15;;;;;;;6.75;5.22;;;;;;;;;;5075550;28;20103;-78
2022/08/14 08:04:43;;;;;;;6.22;4.50;;;;;;;;;;5075844;28;20079;-78
2022/08/14 08:07:10;;;;;;;6.95;5.05;;;;;;;;;;5076054;28;20024;-78
2022/08/14 08:09:36;;;;;;;5.22;4.45;;;;;;;;;;5074685;28;20048;-80
2022/08/14 08:12:04;;;;;;;5.22;4.57;;;;;;;;;;5076051;28;20075;-79
2022/08/14 08:14:32;;;;;;;6.10;3.80;;;;;;;;;;5075900;28;20039;-79
2022/08/14 08:16:59;;;;;;;6.15;4.60;;;;;;;;;;5075588;28;20024;-79
2022/08/14 08:19:25;;;;;;;4.80;3.90;;;;;;;;;;5093543;28;20423;-79
2022/08/14 08:21:52;;;;;;;6.03;4.03;;;;;;;;;;5093879;28;20080;-80
2022/08/14 08:24:18;;;;;;;6.22;4.40;;;;;;;;;;5075325;28;20110;-79
2022/08/14 08:26:44;;;;;;;4.85;3.92;;;;;;;;;;5093605;28;20415;-79
2022/08/14 08:29:18;;;;;;;5.03;4.03;;;;;;;;;;5093819;28;20150;-79
2022/08/14 08:31:49;;;;;;;4.78;3.90;;;;;;;;;;5093447;28;20081;-78
2022/08/14 08:34:15;;;;;;;5.93;3.67;;;;;;;;;;5094027;28;20099;-78
2022/08/14 08:36:42;;;;;;;4.60;3.45;;;;;;;;;;5093518;28;20473;-78
2022/08/14 08:39:08;;;;;;;5.70;3.72;;;;;;;;;;5075457;28;20047;-80
2022/08/14 08:41:39;;;;;;;4.90;3.75;;;;;;;;;;5076664;28;20378;-76
2022/08/14 08:44:05;;;;;;;4.60;3.80;;;;;;;;;;5092460;28;20020;-77
2022/08/14 08:46:32;;;;;;;4.80;3.78;;;;;;;;;;5094699;28;20058;-78
2022/08/14 08:48:58;;;;;;;6.00;3.97;;;;;;;;;;5094477;28;20364;-79
2022/08/14 08:51:31;;;;;;;4.70;3.72;;;;;;;;;;5075155;28;20488;-79
2022/08/14 08:53:57;;;;;;;5.75;5.00;;;;;;;;;;5093450;28;20488;-78
2022/08/14 08:56:53;;;;;;;5.15;4.40;;;;;;;;;;5093508;28;20034;-82
2022/08/14 08:59:29;;;;;;;6.28;3.92;;;;;;;;;;5054666;28;20051;-81
2022/08/14 09:02:04;;;;;;;5.28;3.90;;;;;;;;;;5074907;28;20020;-83
2022/08/14 09:04:33;;;;;;;5.20;3.70;;;;;;;;;;5075059;28;20460;-82
2022/08/14 09:06:59;;;;;;;6.18;4.07;;;;;;;;;;5093127;28;20024;-81
2022/08/14 09:09:27;;;;;;;8.35;4.57;;;;;;;;;;5075522;28;20465;-84
2022/08/14 09:11:54;;;;;;;5.50;4.47;;;;;;;;;;5076034;28;20020;-83
2022/08/14 09:14:25;;;;;;;7.25;4.55;;;;;;;;;;5079197;28;20027;-82
2022/08/14 09:16:53;;;;;;;5.32;4.60;;;;;;;;;;5079351;28;20070;-82
2022/08/14 09:19:20;;;;;;;7.75;4.72;;;;;;;;;;5079044;28;20051;-82
2022/08/14 09:21:46;;;;;;;5.28;4.60;;;;;;;;;;5079404;28;20466;-82
2022/08/14 09:24:13;;;;;;;6.03;5.07;;;;;;;;;;5079324;28;20051;-82
2022/08/14 09:26:40;;;;;;;13.13;4.82;;;;;;;;;;5079241;28;20020;-83
2022/08/14 09:29:07;;;;;;;6.20;4.60;;;;;;;;;;5079251;28;20027;-83
2022/08/14 09:31:34;;;;;;;5.47;4.43;;;;;;;;;;5079560;28;20317;-83
2022/08/14 09:34:07;;;;;;;8.05;5.00;;;;;;;;;;5096774;28;20473;-83
2022/08/14 09:36:36;;;;;;;7.15;4.95;;;;;;;;;;5079377;28;20024;-84
2022/08/14 09:39:10;;;;;;;6.78;5.07;;;;;;;;;;5079208;28;20027;-83
2022/08/14 09:41:42;;;;;;;11.93;5.85;;;;;;;;;;5079042;28;20016;-83
2022/08/14 09:44:08;;;;;;;;;;;;;;;;;;5079102;28;20412;-83
2022/08/14 09:46:35;;;;;;;10.88;5.30;;;;;;;;;;5079020;28;20356;-84
2022/08/14 09:49:01;;;;;;;6.47;5.65;;;;;;;;;;5097026;28;20027;-84
2022/08/14 09:51:28;;;;;;;5.88;4.45;;;;;;;;;;5078643;28;20016;-83
2022/08/14 09:54:05;;;;;;;6.82;4.95;;;;;;;;;;5078758;28;20016;-85
2022/08/14 09:56:42;;;;;;;6.03;4.80;;;;;;;;;;5078715;28;20093;-83
2022/08/14 09:59:13;;;;;;;5.50;4.90;;;;;;;;;;5078504;28;20465;-82
2022/08/14 10:01:40;;;;;;;6.43;5.05;;;;;;;;;;5078551;28;20078;-84
2022/08/14 10:04:17;;;;;;;6.35;4.25;;;;;;;;;;5078427;28;20027;-84
2022/08/14 10:06:44;;;;;;;4.53;4.07;;;;;;;;;;5078281;28;20089;-83
2022/08/14 10:09:10;;;;;;;4.93;4.30;;;;;;;;;;5078582;28;20021;-83
2022/08/14 10:11:37;;;;;;;5.20;4.70;;;;;;;;;;5078341;28;20028;-83
2022/08/14 10:14:16;;;;;;;12.88;4.57;;;;;;;;;;5078275;28;20028;-83
2022/08/14 10:16:49;;;;;;;6.10;4.22;;;;;;;;;;5078345;28;20410;-83
2022/08/14 10:19:17;;;;;;;5.80;4.32;;;;;;;;;;5077910;28;20028;-83
2022/08/14 10:21:48;;;;;;;6.70;4.10;;;;;;;;;;5096272;28;20026;-83
2022/08/14 10:24:46;;;;;;;6.72;4.70;;;;;;;;;;5078098;28;20031;-82
2022/08/14 10:27:17;;;;;;;6.13;4.43;;;;;;;;;;5056976;28;20077;-82
2022/08/14 10:29:47;;;;;;;7.00;4.35;;;;;;;;;;5077573;28;20024;-83
2022/08/14 10:32:13;;;;;;;5.65;4.82;;;;;;;;;;5078023;28;20078;-82
2022/08/14 10:34:39;;;;;;;5.38;4.65;;;;;;;;;;5077768;28;20073;-82
2022/08/14 10:37:07;;;;;;;7.05;4.53;;;;;;;;;;5077880;28;20035;-83
2022/08/14 10:39:35;;;;;;;7.70;4.57;;;;;;;;;;5077604;28;20081;-84
2022/08/14 10:42:04;;;;;;;5.75;4.30;;;;;;;;;;5076323;28;20023;-83
2022/08/14 10:44:35;;;;;;;6.43;4.22;;;;;;;;;;5095473;28;20028;-85
2022/08/14 10:47:10;;;;;;;5.35;4.07;;;;;;;;;;5081587;28;20028;-84
2022/08/14 10:49:37;;;;;;;7.00;4.47;;;;;;;;;;5078075;28;20111;-85
2022/08/14 10:52:07;;;;;;;4.25;3.50;;;;;;;;;;5076909;28;20350;-84
2022/08/14 10:54:38;;;;;;;4.53;3.72;;;;;;;;;;5095040;28;20110;-84
2022/08/14 10:57:11;;;;;;;4.97;4.07;;;;;;;;;;5077286;28;20027;-83
2022/08/14 10:59:41;;;;;;;4.75;3.80;;;;;;;;;;5077641;28;20020;-84
2022/08/14 11:02:20;;;;;;;8.80;4.75;;;;;;;;;;5076716;28;20016;-82
2022/08/14 11:05:06;;;;;;;4.75;4.13;;;;;;;;;;5074656;28;20047;-82
2022/08/14 11:07:33;;;;;;;5.85;4.60;;;;;;;;;;5094031;28;20023;-83
2022/08/14 11:10:00;;;;;;;6.22;5.15;;;;;;;;;;5073660;28;20027;-83
2022/08/14 11:12:37;;;;;;;11.77;7.45;;;;;;;;;;5076866;28;20027;-84
2022/08/14 11:15:04;;;;;;;6.75;5.00;;;;;;;;;;5098564;28;20027;-83
2022/08/14 11:17:31;;;;;;;8.05;6.00;;;;;;;;;;5103779;28;20041;-84
2022/08/14 11:19:58;;;;;;;8.45;7.38;;;;;;;;;;5076135;28;20016;-83
2022/08/14 11:22:29;;;;;;;9.63;8.60;;;;;;;;;;5076011;28;20106;-82
2022/08/14 11:24:58;;;;;;;14.17;9.80;;;;;;;;;;5075910;28;20123;-82
2022/08/14 11:27:25;;;;;;;7.03;6.32;;;;;;;;;;5076041;28;20024;-85
2022/08/14 11:29:53;;;;;;;8.70;6.95;;;;;;;;;;5094016;28;20020;-82
2022/08/14 11:32:19;;;;;;;9.45;6.70;;;;;;;;;;5076028;28;20012;-80
2022/08/14 11:34:46;;;;;;;9.00;6.43;;;;;;;;;;5075523;28;20465;-83
2022/08/14 11:37:12;;;;;;;7.35;6.35;;;;;;;;;;5075945;28;20473;-84
2022/08/14 11:39:39;;;;;;;7.30;6.60;;;;;;;;;;5076310;28;20043;-82
2022/08/14 11:42:06;;;;;;;8.45;6.88;;;;;;;;;;5076167;28;20084;-82
2022/08/14 11:44:32;;;;;;;6.38;5.78;;;;;;;;;;5094364;28;20039;-82
2022/08/14 11:46:58;;;;;;;6.38;5.78;;;;;;;;;;5076070;28;20477;-82
2022/08/14 11:49:26;;;;;;;7.80;6.60;;;;;;;;;;5075913;28;20027;-82
2022/08/14 11:51:53;;;;;;;6.93;6.28;;;;;;;;;;5094114;28;20022;-82
2022/08/14 11:54:19;;;;;;;7.57;6.88;;;;;;;;;;5093901;28;20024;-81
2022/08/14 11:56:48;;;;;;;6.93;5.85;;;;;;;;;;5075559;28;20024;-81
2022/08/14 11:59:21;;;;;;;7.57;6.88;;;;;;;;;;5075793;28;20561;-79
2022/08/14 12:01:47;;;;;;;9.60;6.72;;;;;;;;;;5075835;28;20031;-82
2022/08/14 12:04:22;;;;;;;7.38;6.68;;;;;;;;;;5075689;28;20016;-82
2022/08/14 12:06:49;;;;;;;6.82;6.15;;;;;;;;;;5076158;28;20039;-80
2022/08/14 12:09:27;;;;;;;6.78;6.07;;;;;;;;;;5075666;28;20389;-82
2022/08/14 12:11:54;;;;;;;6.55;5.95;;;;;;;;;;5075740;28;20389;-79
2022/08/14 12:14:22;;;;;;;6.20;5.60;;;;;;;;;;5075830;28;20077;-78
2022/08/14 12:17:00;;;;;;;7.03;6.32;;;;;;;;;;5075591;28;20035;-79
2022/08/14 12:19:26;;;;;;;6.53;5.82;;;;;;;;;;5093590;28;20020;-79
2022/08/14 12:21:52;;;;;;;6.75;6.05;;;;;;;;;;5075633;28;20035;-78
2022/08/14 12:24:26;;;;;;;6.22;5.63;;;;;;;;;;5075603;28;20385;-83
2022/08/14 12:26:56;;;;;;;6.43;5.82;;;;;;;;;;5075277;28;20049;-81
2022/08/14 12:29:22;;;;;;;7.03;6.32;;;;;;;;;;5093703;28;20020;-80
2022/08/14 12:31:57;;;;;;;7.85;7.05;;;;;;;;;;5093410;28;20020;-78
2022/08/14 12:34:30;;;;;;;8.32;7.53;;;;;;;;;;5075552;28;20020;-79
2022/08/14 12:37:06;;;;;;;8.52;7.72;;;;;;;;;;5075503;28;20028;-79
2022/08/14 12:39:33;;;;;;;8.55;7.75;;;;;;;;;;5075165;28;20032;-78
2022/08/14 12:42:09;;;;;;;8.20;7.38;;;;;;;;;;5075548;28;20134;-80
2022/08/14 12:44:37;;;;;;;8.15;7.22;;;;;;;;;;5075645;28;20021;-80
2022/08/14 12:47:04;;;;;;;8.00;7.20;;;;;;;;;;5076751;28;20477;-85
2022/08/14 12:49:30;;;;;;;8.63;7.82;;;;;;;;;;5080158;28;20031;-84
2022/08/14 12:51:58;;;;;;;8.63;7.72;;;;;;;;;;5080075;28;20024;-82
2022/08/14 12:54:24;;;;;;;9.00;7.70;;;;;;;;;;5079693;28;20438;-84
2022/08/14 12:56:50;;;;;;;8.88;7.85;;;;;;;;;;5079897;28;20024;-83
2022/08/14 12:59:16;;;;;;;7.15;6.45;;;;;;;;;;5080022;28;20032;-84
2022/08/14 13:01:45;;;;;;;9.18;8.15;;;;;;;;;;5079240;28;20499;-85
2022/08/14 13:04:15;;;;;;;11.45;10.35;;;;;;;;;;5079650;28;20799;-83
2022/08/14 13:06:43;;;;;;;8.88;7.90;;;;;;;;;;5079960;28;20028;-83
2022/08/14 13:09:10;;;;;;;8.18;7.38;;;;;;;;;;5080109;28;20533;-85
2022/08/14 13:11:44;;;;;;;8.90;8.00;;;;;;;;;;5079970;28;20358;-88
2022/08/14 13:14:15;;;;;;;8.48;7.68;;;;;;;;;;5079774;28;20069;-85
2022/08/14 13:16:42;;;;;;;7.28;6.47;;;;;;;;;;5079816;28;20115;-85
2022/08/14 13:19:15;;;;;;;6.35;5.75;;;;;;;;;;5079781;28;20072;-85
2022/08/14 13:21:42;;;;;;;7.45;6.75;;;;;;;;;;5079679;28;20016;-84
2022/08/14 13:24:11;;;;;;;18.73;15.23;;;;;;;;;;5079437;28;20057;-85
2022/08/14 13:26:39;;;;;;;6.60;5.90;;;;;;;;;;5079619;28;20111;-85
2022/08/14 13:29:05;;;;;;;10.80;6.32;;;;;;;;;;5079604;28;20373;-83
2022/08/14 13:31:33;;;;;;;6.95;6.25;;;;;;;;;;5079522;28;20038;-84
2022/08/14 13:33:59;;;;;;;6.90;5.53;;;;;;;;;;5079549;28;20129;-84
2022/08/14 13:36:26;;;;;;;5.80;5.20;;;;;;;;;;5079101;28;20030;-82
2022/08/14 13:38:53;;;;;;;5.68;4.70;;;;;;;;;;5079129;28;20430;-84
2022/08/14 13:41:22;;;;;;;5.55;4.38;;;;;;;;;;5078944;28;20020;-86
2022/08/14 13:43:49;;;;;;;6.60;5.03;;;;;;;;;;5079198;28;20020;-83
2022/08/14 13:46:19;;;;;;;7.53;4.82;;;;;;;;;;5079018;28;20035;-83
2022/08/14 13:48:45;;;;;;;5.90;5.30;;;;;;;;;;5096774;28;20016;-83
2022/08/14 13:51:14;;;;;;;5.95;4.97;;;;;;;;;;5078731;28;20437;-82
2022/08/14 13:53:49;;;;;;;7.40;5.78;;;;;;;;;;5078968;28;20027;-83
2022/08/14 13:56:16;;;;;;;7.05;5.97;;;;;;;;;;5078942;28;20453;-82
2022/08/14 13:58:43;;;;;;;7.32;6.03;;;;;;;;;;5078446;28;20097;-81
2022/08/14 14:01:16;;;;;;;9.20;6.75;;;;;;;;;;5078661;28;20020;-81
2022/08/14 14:03:45;;;;;;;7.72;6.97;;;;;;;;;;5078527;28;20020;-82
2022/08/14 14:06:13;;;;;;;9.70;8.73;;;;;;;;;;5078104;28;20063;-82
2022/08/14 14:08:45;;;;;;;15.73;12.25;;;;;;;;;;5078532;28;20373;-82
2022/08/14 14:11:12;;;;;;;9.65;8.65;;;;;;;;;;5078352;28;20385;-83
2022/08/14 14:13:38;;;;;;;8.90;8.00;;;;;;;;;;5078013;28;20122;-81
2022/08/14 14:16:07;;;;;;;11.55;9.50;;;;;;;;;;5078150;28;20427;-82
2022/08/14 14:18:34;;;;;;;10.88;9.13;;;;;;;;;;5078030;28;20025;-82
2022/08/14 14:21:01;;;;;;;10.68;9.50;;;;;;;;;;5078330;28;20024;-82
2022/08/14 14:23:28;;;;;;;9.02;8.23;;;;;;;;;;5078305;28;20020;-85
2022/08/14 14:25:54;;;;;;;9.38;8.48;;;;;;;;;;5078183;28;20028;-81
2022/08/14 14:28:20;;;;;;;10.10;9.10;;;;;;;;;;5078104;28;20016;-83
2022/08/14 14:30:47;;;;;;;10.93;9.38;;;;;;;;;;5078030;28;20564;-83
2022/08/14 14:33:13;;;;;;;10.00;9.00;;;;;;;;;;5078320;28;20046;-83
2022/08/14 14:35:44;;;;;;;11.25;10.15;;;;;;;;;;5078160;28;20036;-83
2022/08/14 14:38:14;;;;;;;12.10;10.63;;;;;;;;;;5078260;28;20477;-82
2022/08/14 14:40:44;;;;;;;11.18;10.07;;;;;;;;;;5078058;28;20028;-83
2022/08/14 14:43:11;;;;;;;10.48;9.43;;;;;;;;;;5077777;28;20024;-80
2022/08/14 14:45:37;;;;;;;12.18;10.98;;;;;;;;;;5077775;28;20024;-83
2022/08/14 14:48:06;;;;;;;11.55;10.32;;;;;;;;;;5077845;28;20024;-83
2022/08/14 14:50:33;;;;;;;11.07;9.95;;;;;;;;;;5077619;28;20027;-82
2022/08/14 14:52:59;;;;;;;11.43;10.32;;;;;;;;;;5077517;28;20028;-82
2022/08/14 14:55:26;;;;;;;11.88;10.77;;;;;;;;;;5077523;28;20149;-80
2022/08/14 14:57:53;;;;;;;9.70;8.80;;;;;;;;;;5079082;28;20092;-79
2022/08/14 15:00:19;;;;;;;9.98;8.82;;;;;;;;;;5095685;28;20479;-80
2022/08/14 15:02:50;;;;;;;11.70;10.35;;;;;;;;;;5077991;28;20059;-80
2022/08/14 15:05:17;;;;;;;15.13;9.52;;;;;;;;;;5077204;28;20079;-81
2022/08/14 15:07:44;;;;;;;13.55;12.20;;;;;;;;;;5077088;28;20347;-82
2022/08/14 15:10:12;;;;;;;11.52;10.32;;;;;;;;;;5076503;28;20031;-82
2022/08/14 15:12:38;;;;;;;11.13;9.75;;;;;;;;;;5077240;28;20020;-85
2022/08/14 15:15:05;;;;;;;11.77;9.93;;;;;;;;;;5077310;28;20024;-81
2022/08/14 15:17:35;;;;;;;12.05;10.80;;;;;;;;;;5077303;28;20538;-83
2022/08/14 15:20:11;;;;;;;12.55;10.32;;;;;;;;;;5076847;28;20032;-82
2022/08/14 15:22:38;;;;;;;10.48;9.48;;;;;;;;;;5094942;28;20107;-80
2022/08/14 15:25:05;;;;;;;11.30;9.90;;;;;;;;;;5076674;28;20114;-84
2022/08/14 15:27:33;;;;;;;12.32;10.95;;;;;;;;;;5076476;28;20034;-81
2022/08/14 15:29:59;;;;;;;12.10;10.90;;;;;;;;;;5076975;28;20600;-83
2022/08/14 15:32:25;;;;;;;11.02;8.57;;;;;;;;;;5076930;28;20027;-81
2022/08/14 15:34:51;;;;;;;11.23;9.52;;;;;;;;;;5094727;28;20028;-80
2022/08/14 15:37:18;;;;;;;32.22;29.05;;;;;;;;;;5077189;28;20370;-85
2022/08/14 15:39:44;;;;;;;14.65;12.05;;;;;;;;;;5077238;28;20492;-82
2022/08/14 15:42:10;;;;;;;21.88;11.65;;;;;;;;;;5076644;28;20186;-83
2022/08/14 15:44:37;;;;;;;14.00;10.85;;;;;;;;;;5076847;28;20074;-83
2022/08/14 15:47:08;;;;;;;14.73;12.13;;;;;;;;;;5076761;28;20103;-83
2022/08/14 15:49:34;;;;;;;12.35;11.15;;;;;;;;;;5076058;28;20077;-82
2022/08/14 15:52:01;;;;;;;13.18;11.73;;;;;;;;;;5076313;28;20492;-85